sensor_id;sensor_type;location;lat;lon;timestamp;pressure;altitude;pressure_sealevel;temperature;humidity
20009;BME280;10165;42.662;23.260;2022-08-11T00:01:52;94319.16;;;21.53;61.27
20009;BME280;10165;42.662;23.260;2022-08-11T00:04:22;94318.16;;;21.39;62.04
20009;BME280;10165;42.662;23.260;2022-08-11T00:06:52;94327.63;;;21.58;61.34
20009;BME280;10165;42.662;23.260;2022-08-11T00:09:23;94317.13;;;21.60;60.82
20009;BME280;10165;42.662;23.260;2022-08-11T00:12:12;94315.81;;;21.08;62.58
20009;BME280;10165;42.662;23.260;2022-08-11T00:14:40;94314.91;;;20.84;64.48
20009;BME280;10165;42.662;23.260;2022-08-11T00:17:10;94318.09;;;20.75;64.95
20009;BME280;10165;42.662;23.260;2022-08-11T00:19:42;94313.44;;;21.13;63.88
20009;BME280;10165;42.662;23.260;2022-08-11T00:22:31;94321.13;;;21.79;61.13
20009;BME280;10165;42.662;23.260;2022-08-11T00:24:59;94320.66;;;21.84;60.57
20009;BME280;10165;42.662;23.260;2022-08-11T00:27:36;94325.63;;;21.62;61.87
20009;BME280;10165;42.662;23.260;2022-08-11T00:30:05;94317.44;;;21.92;60.93
20009;BME280;10165;42.662;23.260;2022-08-11T00:32:32;94315.22;;;21.84;61.47
20009;BME280;10165;42.662;23.260;2022-08-11T00:35:00;94325.84;;;21.44;62.83
20009;BME280;10165;42.662;23.260;2022-08-11T00:37:49;94311.66;;;20.59;66.39
20009;BME280;10165;42.662;23.260;2022-08-11T00:40:23;94302.41;;;20.90;65.96
20009;BME280;10165;42.662;23.260;2022-08-11T00:43:14;94305.06;;;21.91;61.66
20009;BME280;10165;42.662;23.260;2022-08-11T00:46:06;94294.38;;;22.27;59.80
20009;BME280;10165;42.662;23.260;2022-08-11T01:00:57;94300.13;;;21.53;61.80
20009;BME280;10165;42.662;23.260;2022-08-11T01:06:53;94297.72;;;21.28;63.51
20009;BME280;10165;42.662;23.260;2022-08-11T01:12:26;94301.31;;;21.21;63.65
20009;BME280;10165;42.662;23.260;2022-08-11T01:21:04;94292.34;;;21.24;62.65
20009;BME280;10165;42.662;23.260;2022-08-11T01:41:05;94295.56;;;20.78;62.90
20009;BME280;10165;42.662;23.260;2022-08-11T01:49:34;94282.59;;;21.57;61.05
20009;BME280;10165;42.662;23.260;2022-08-11T01:52:35;94281.56;;;21.48;61.46
20009;BME280;10165;42.662;23.260;2022-08-11T01:59:07;94284.56;;;20.92;62.92
20009;BME280;10165;42.662;23.260;2022-08-11T02:07:35;94283.69;;;20.99;63.48
20009;BME280;10165;42.662;23.260;2022-08-11T02:18:54;94276.56;;;21.12;61.66
20009;BME280;10165;42.662;23.260;2022-08-11T02:22:00;94280.16;;;21.63;60.06
20009;BME280;10165;42.662;23.260;2022-08-11T02:25:03;94284.34;;;21.71;59.30
20009;BME280;10165;42.662;23.260;2022-08-11T02:28:16;94284.28;;;21.17;61.07
20009;BME280;10165;42.662;23.260;2022-08-11T02:31:06;94281.06;;;20.55;63.29
20009;BME280;10165;42.662;23.260;2022-08-11T02:34:23;94287.50;;;20.30;64.75
20009;BME280;10165;42.662;23.260;2022-08-11T02:39:37;94287.53;;;20.23;65.14
20009;BME280;10165;42.662;23.260;2022-08-11T02:48:47;94277.91;;;21.31;60.95
20009;BME280;10165;42.662;23.260;2022-08-11T02:54:38;94285.50;;;21.43;60.13
20009;BME280;10165;42.662;23.260;2022-08-11T03:00:03;94267.66;;;21.69;59.53
20009;BME280;10165;42.662;23.260;2022-08-11T03:08:43;94282.59;;;21.84;58.66
20009;BME280;10165;42.662;23.260;2022-08-11T03:11:41;94279.00;;;21.64;59.41
20009;BME280;10165;42.662;23.260;2022-08-11T03:14:38;94282.06;;;21.66;59.45
20009;BME280;10165;42.662;23.260;2022-08-11T03:17:41;94279.66;;;21.71;59.26
20009;BME280;10165;42.662;23.260;2022-08-11T03:23:26;94292.19;;;21.01;61.28
20009;BME280;10165;42.662;23.260;2022-08-11T03:26:30;94279.13;;;20.92;62.04
20009;BME280;10165;42.662;23.260;2022-08-11T03:34:47;94276.91;;;21.75;59.07
20009;BME280;10165;42.662;23.260;2022-08-11T03:38:10;94275.63;;;21.83;58.67
20009;BME280;10165;42.662;23.260;2022-08-11T03:40:50;94275.56;;;21.86;58.77
20009;BME280;10165;42.662;23.260;2022-08-11T03:52:48;94286.16;;;21.51;59.76
20009;BME280;10165;42.662;23.260;2022-08-11T03:55:16;94285.06;;;21.18;61.07
20009;BME280;10165;42.662;23.260;2022-08-11T04:00:45;94290.00;;;20.51;63.50
20009;BME280;10165;42.662;23.260;2022-08-11T04:09:15;94291.16;;;21.56;61.15
20009;BME280;10165;42.662;23.260;2022-08-11T04:20:58;94276.72;;;22.12;59.56
20009;BME280;10165;42.662;23.260;2022-08-11T04:35:39;94290.34;;;22.12;59.67
20009;BME280;10165;42.662;23.260;2022-08-11T04:53:02;94296.03;;;21.68;62.03
20009;BME280;10165;42.662;23.260;2022-08-11T05:13:33;94299.28;;;22.59;59.17
20009;BME280;10165;42.662;23.260;2022-08-11T05:16:24;94301.28;;;22.55;58.82
20009;BME280;10165;42.662;23.260;2022-08-11T05:19:18;94298.16;;;22.57;59.34
20009;BME280;10165;42.662;23.260;2022-08-11T05:22:07;94296.97;;;22.58;59.89
20009;BME280;10165;42.662;23.260;2022-08-11T05:25:09;94300.44;;;22.35;59.32
20009;BME280;10165;42.662;23.260;2022-08-11T05:28:34;94296.97;;;21.58;62.11
20009;BME280;10165;42.662;23.260;2022-08-11T05:31:32;94297.06;;;22.04;60.83
20009;BME280;10165;42.662;23.260;2022-08-11T05:34:25;94296.09;;;22.18;60.53
20009;BME280;10165;42.662;23.260;2022-08-11T05:37:19;94299.34;;;22.56;59.40
20009;BME280;10165;42.662;23.260;2022-08-11T05:40:12;94299.91;;;22.20;60.00
20009;BME280;10165;42.662;23.260;2022-08-11T05:43:00;94296.84;;;21.95;61.56
20009;BME280;10165;42.662;23.260;2022-08-11T05:46:01;94303.13;;;21.62;62.32
20009;BME280;10165;42.662;23.260;2022-08-11T05:48:47;94294.84;;;22.46;59.89
20009;BME280;10165;42.662;23.260;2022-08-11T05:51:42;94296.84;;;22.65;59.02
20009;BME280;10165;42.662;23.260;2022-08-11T05:54:39;94294.41;;;22.24;60.62
20009;BME280;10165;42.662;23.260;2022-08-11T05:57:35;94302.47;;;22.08;61.06
20009;BME280;10165;42.662;23.260;2022-08-11T06:00:19;94301.66;;;22.57;59.44
20009;BME280;10165;42.662;23.260;2022-08-11T06:02:57;94291.31;;;23.11;57.64
20009;BME280;10165;42.662;23.260;2022-08-11T06:05:33;94299.06;;;23.13;57.36
20009;BME280;10165;42.662;23.260;2022-08-11T06:08:09;94300.63;;;23.33;56.87
20009;BME280;10165;42.662;23.260;2022-08-11T06:10:41;94288.47;;;23.74;55.53
20009;BME280;10165;42.662;23.260;2022-08-11T06:13:09;94289.66;;;23.73;55.44
20009;BME280;10165;42.662;23.260;2022-08-11T06:15:45;94295.94;;;24.06;54.58
20009;BME280;10165;42.662;23.260;2022-08-11T06:18:16;94282.25;;;23.73;55.31
20009;BME280;10165;42.662;23.260;2022-08-11T06:20:51;94286.91;;;24.09;54.48
20009;BME280;10165;42.662;23.260;2022-08-11T06:23:21;94283.41;;;24.08;54.80
20009;BME280;10165;42.662;23.260;2022-08-11T06:25:51;94286.69;;;23.67;55.48
20009;BME280;10165;42.662;23.260;2022-08-11T06:28:30;94286.09;;;23.76;55.03
20009;BME280;10165;42.662;23.260;2022-08-11T06:30:58;94286.03;;;23.79;54.10
20009;BME280;10165;42.662;23.260;2022-08-11T06:33:36;94281.19;;;23.87;53.57
20009;BME280;10165;42.662;23.260;2022-08-11T06:36:27;94284.31;;;23.50;53.61
20009;BME280;10165;42.662;23.260;2022-08-11T06:41:39;94283.53;;;24.21;53.16
20009;BME280;10165;42.662;23.260;2022-08-11T06:46:48;94281.91;;;23.71;53.35
20009;BME280;10165;42.662;23.260;2022-08-11T06:49:19;94288.63;;;24.03;52.50
20009;BME280;10165;42.662;23.260;2022-08-11T06:52:09;94287.63;;;23.77;53.24
20009;BME280;10165;42.662;23.260;2022-08-11T06:55:04;94278.25;;;23.78;52.96
20009;BME280;10165;42.662;23.260;2022-08-11T06:57:36;94288.31;;;23.81;53.19
20009;BME280;10165;42.662;23.260;2022-08-11T07:00:28;94291.13;;;23.77;51.76
20009;BME280;10165;42.662;23.260;2022-08-11T07:03:11;94286.06;;;24.44;50.11
20009;BME280;10165;42.662;23.260;2022-08-11T07:08:28;94287.44;;;24.36;49.69
20009;BME280;10165;42.662;23.260;2022-08-11T07:19:06;94293.66;;;24.53;49.33
20009;BME280;10165;42.662;23.260;2022-08-11T07:21:54;94298.16;;;24.59;49.27
20009;BME280;10165;42.662;23.260;2022-08-11T07:24:44;94287.75;;;24.99;48.24
20009;BME280;10165;42.662;23.260;2022-08-11T07:27:39;94295.16;;;24.70;48.67
20009;BME280;10165;42.662;23.260;2022-08-11T07:30:26;94292.91;;;24.81;49.23
20009;BME280;10165;42.662;23.260;2022-08-11T07:32:55;94290.81;;;25.17;48.02
20009;BME280;10165;42.662;23.260;2022-08-11T07:35:28;94295.53;;;24.56;49.50
20009;BME280;10165;42.662;23.260;2022-08-11T07:38:04;94300.16;;;25.04;48.51
20009;BME280;10165;42.662;23.260;2022-08-11T07:40:33;94291.88;;;24.30;50.26
20009;BME280;10165;42.662;23.260;2022-08-11T07:43:02;94294.09;;;24.51;50.16
20009;BME280;10165;42.662;23.260;2022-08-11T07:45:29;94290.41;;;25.32;48.52
20009;BME280;10165;42.662;23.260;2022-08-11T07:48:15;94287.09;;;25.24;46.62
20009;BME280;10165;42.662;23.260;2022-08-11T07:51:01;94281.00;;;25.33;46.82
20009;BME280;10165;42.662;23.260;2022-08-11T07:53:47;94287.13;;;25.49;45.87
20009;BME280;10165;42.662;23.260;2022-08-11T07:56:24;94290.53;;;25.41;46.78
20009;BME280;10165;42.662;23.260;2022-08-11T07:59:12;94286.88;;;25.60;47.57
20009;BME280;10165;42.662;23.260;2022-08-11T08:02:17;94288.06;;;25.17;47.85
20009;BME280;10165;42.662;23.260;2022-08-11T08:05:05;94283.78;;;25.58;46.46
20009;BME280;10165;42.662;23.260;2022-08-11T08:07:50;94272.75;;;25.99;45.20
20009;BME280;10165;42.662;23.260;2022-08-11T08:10:37;94280.66;;;26.35;45.03
20009;BME280;10165;42.662;23.260;2022-08-11T08:13:22;94283.66;;;25.07;47.44
20009;BME280;10165;42.662;23.260;2022-08-11T08:16:08;94278.81;;;25.40;46.54
20009;BME280;10165;42.662;23.260;2022-08-11T08:18:55;94285.34;;;25.72;44.67
20009;BME280;10165;42.662;23.260;2022-08-11T08:21:22;94278.44;;;25.54;43.70
20009;BME280;10165;42.662;23.260;2022-08-11T08:23:50;94276.47;;;25.55;43.52
20009;BME280;10165;42.662;23.260;2022-08-11T08:26:21;94271.31;;;25.57;44.82
20009;BME280;10165;42.662;23.260;2022-08-11T08:29:17;94282.28;;;26.07;43.92
20009;BME280;10165;42.662;23.260;2022-08-11T08:32:04;94276.69;;;25.73;44.97
20009;BME280;10165;42.662;23.260;2022-08-11T08:34:34;94265.88;;;25.82;44.34
20009;BME280;10165;42.662;23.260;2022-08-11T08:37:03;94266.72;;;25.54;44.77
20009;BME280;10165;42.662;23.260;2022-08-11T08:39:51;94269.47;;;25.66;45.47
20009;BME280;10165;42.662;23.260;2022-08-11T08:42:22;94268.81;;;26.00;44.21
20009;BME280;10165;42.662;23.260;2022-08-11T08:44:57;94268.72;;;26.16;43.63
20009;BME280;10165;42.662;23.260;2022-08-11T08:47:25;94259.91;;;26.47;44.37
20009;BME280;10165;42.662;23.260;2022-08-11T08:50:15;94263.31;;;26.38;43.56
20009;BME280;10165;42.662;23.260;2022-08-11T08:53:03;94267.72;;;25.73;44.18
20009;BME280;10165;42.662;23.260;2022-08-11T08:55:31;94261.38;;;25.63;45.19
20009;BME280;10165;42.662;23.260;2022-08-11T08:57:59;94262.25;;;25.73;44.45
20009;BME280;10165;42.662;23.260;2022-08-11T09:00:38;94259.53;;;25.85;43.63
20009;BME280;10165;42.662;23.260;2022-08-11T09:03:05;94257.53;;;26.24;42.57
20009;BME280;10165;42.662;23.260;2022-08-11T09:05:58;94250.53;;;25.72;44.25
20009;BME280;10165;42.662;23.260;2022-08-11T09:08:26;94259.75;;;26.29;43.06
20009;BME280;10165;42.662;23.260;2022-08-11T09:10:56;94252.47;;;26.35;42.98
20009;BME280;10165;42.662;23.260;2022-08-11T09:13:44;94252.72;;;26.02;44.11
20009;BME280;10165;42.662;23.260;2022-08-11T09:16:30;94248.34;;;26.17;43.84
20009;BME280;10165;42.662;23.260;2022-08-11T09:18:59;94254.03;;;26.23;42.80
20009;BME280;10165;42.662;23.260;2022-08-11T09:21:27;94246.59;;;26.24;43.08
20009;BME280;10165;42.662;23.260;2022-08-11T09:24:15;94253.81;;;25.67;43.81
20009;BME280;10165;42.662;23.260;2022-08-11T09:27:05;94253.94;;;25.89;43.70
20009;BME280;10165;42.662;23.260;2022-08-11T09:29:33;94250.97;;;26.08;42.81
20009;BME280;10165;42.662;23.260;2022-08-11T09:32:01;94246.69;;;26.07;43.10
20009;BME280;10165;42.662;23.260;2022-08-11T09:34:28;94245.94;;;25.82;42.25
20009;BME280;10165;42.662;23.260;2022-08-11T09:36:57;94247.25;;;25.77;41.55
20009;BME280;10165;42.662;23.260;2022-08-11T09:40:05;94227.28;;;26.40;40.53
20009;BME280;10165;42.662;23.260;2022-08-11T09:42:53;94235.44;;;25.93;41.79
20009;BME280;10165;42.662;23.260;2022-08-11T09:45:39;94234.28;;;26.75;40.39
20009;BME280;10165;42.662;23.260;2022-08-11T09:48:06;94243.13;;;26.45;41.38
20009;BME280;10165;42.662;23.260;2022-08-11T09:50:33;94238.25;;;26.14;43.05
20009;BME280;10165;42.662;23.260;2022-08-11T09:53:01;94236.19;;;25.81;42.52
20009;BME280;10165;42.662;23.260;2022-08-11T09:55:52;94223.78;;;26.27;41.62
20009;BME280;10165;42.662;23.260;2022-08-11T09:58:19;94225.63;;;26.42;42.74
20009;BME280;10165;42.662;23.260;2022-08-11T10:01:09;94225.75;;;25.25;45.93
20009;BME280;10165;42.662;23.260;2022-08-11T10:04:06;94218.13;;;24.91;45.79
20009;BME280;10165;42.662;23.260;2022-08-11T10:06:36;94221.41;;;26.03;43.64
20009;BME280;10165;42.662;23.260;2022-08-11T10:09:24;94220.50;;;26.06;43.76
20009;BME280;10165;42.662;23.260;2022-08-11T10:11:57;94203.53;;;26.24;42.69
20009;BME280;10165;42.662;23.260;2022-08-11T10:14:26;94211.34;;;25.88;43.92
20009;BME280;10165;42.662;23.260;2022-08-11T10:17:13;94221.16;;;26.10;42.94
20009;BME280;10165;42.662;23.260;2022-08-11T10:19:42;94217.66;;;26.23;41.89
20009;BME280;10165;42.662;23.260;2022-08-11T10:22:30;94211.34;;;26.00;41.95
20009;BME280;10165;42.662;23.260;2022-08-11T10:25:16;94217.59;;;26.82;41.76
20009;BME280;10165;42.662;23.260;2022-08-11T10:28:03;94208.38;;;26.54;42.43
20009;BME280;10165;42.662;23.260;2022-08-11T10:30:52;94219.56;;;26.60;42.19
20009;BME280;10165;42.662;23.260;2022-08-11T10:33:40;94222.03;;;26.07;42.88
20009;BME280;10165;42.662;23.260;2022-08-11T10:36:31;94211.13;;;25.95;43.16
20009;BME280;10165;42.662;23.260;2022-08-11T10:38:59;94208.50;;;26.85;41.35
20009;BME280;10165;42.662;23.260;2022-08-11T10:41:27;94212.19;;;26.23;42.05
20009;BME280;10165;42.662;23.260;2022-08-11T10:44:42;94211.72;;;26.37;42.09
20009;BME280;10165;42.662;23.260;2022-08-11T10:47:11;94198.19;;;26.89;40.60
20009;BME280;10165;42.662;23.260;2022-08-11T10:49:57;94198.47;;;26.91;39.58
20009;BME280;10165;42.662;23.260;2022-08-11T10:52:45;94191.38;;;26.81;39.98
20009;BME280;10165;42.662;23.260;2022-08-11T10:55:33;94200.00;;;27.14;39.36
20009;BME280;10165;42.662;23.260;2022-08-11T10:58:20;94184.97;;;27.49;38.22
20009;BME280;10165;42.662;23.260;2022-08-11T11:01:07;94192.28;;;26.78;39.27
20009;BME280;10165;42.662;23.260;2022-08-11T11:03:35;94192.50;;;27.58;38.77
20009;BME280;10165;42.662;23.260;2022-08-11T11:06:07;94188.28;;;26.92;39.45
20009;BME280;10165;42.662;23.260;2022-08-11T11:08:59;94183.81;;;26.29;39.77
20009;BME280;10165;42.662;23.260;2022-08-11T11:11:34;94176.91;;;27.02;38.76
20009;BME280;10165;42.662;23.260;2022-08-11T11:14:21;94180.75;;;26.49;40.12
20009;BME280;10165;42.662;23.260;2022-08-11T11:20:25;94180.13;;;26.45;40.86
20009;BME280;10165;42.662;23.260;2022-08-11T11:23:17;94175.28;;;26.83;39.96
20009;BME280;10165;42.662;23.260;2022-08-11T11:25:59;94183.09;;;27.16;38.90
20009;BME280;10165;42.662;23.260;2022-08-11T11:31:50;94183.97;;;26.47;40.31
20009;BME280;10165;42.662;23.260;2022-08-11T11:37:21;94184.66;;;26.60;40.64
20009;BME280;10165;42.662;23.260;2022-08-11T11:39:49;94183.78;;;26.98;39.15
20009;BME280;10165;42.662;23.260;2022-08-11T11:42:17;94180.56;;;26.78;38.53
20009;BME280;10165;42.662;23.260;2022-08-11T11:44:45;94170.03;;;27.50;37.36
20009;BME280;10165;42.662;23.260;2022-08-11T11:47:14;94183.63;;;27.54;37.50
20009;BME280;10165;42.662;23.260;2022-08-11T11:49:47;94176.63;;;27.00;38.50
20009;BME280;10165;42.662;23.260;2022-08-11T11:52:17;94171.00;;;27.04;37.96
20009;BME280;10165;42.662;23.260;2022-08-11T11:54:46;94171.44;;;27.02;38.18
20009;BME280;10165;42.662;23.260;2022-08-11T11:57:17;94157.97;;;27.79;37.13
20009;BME280;10165;42.662;23.260;2022-08-11T12:00:04;94159.31;;;27.43;37.88
20009;BME280;10165;42.662;23.260;2022-08-11T12:03:00;94174.50;;;27.04;38.44
20009;BME280;10165;42.662;23.260;2022-08-11T12:05:30;94166.88;;;27.30;37.47
20009;BME280;10165;42.662;23.260;2022-08-11T12:08:00;94172.13;;;27.16;38.16
20009;BME280;10165;42.662;23.260;2022-08-11T12:10:57;94165.56;;;27.13;37.16
20009;BME280;10165;42.662;23.260;2022-08-11T12:13:45;94144.84;;;27.12;37.12
20009;BME280;10165;42.662;23.260;2022-08-11T12:16:14;94150.09;;;26.97;37.74
20009;BME280;10165;42.662;23.260;2022-08-11T12:19:03;94139.09;;;27.19;37.70
20009;BME280;10165;42.662;23.260;2022-08-11T12:21:33;94142.31;;;26.74;38.32
20009;BME280;10165;42.662;23.260;2022-08-11T12:24:01;94143.78;;;26.66;38.04
20009;BME280;10165;42.662;23.260;2022-08-11T12:27:04;94145.59;;;27.13;37.84
20009;BME280;10165;42.662;23.260;2022-08-11T12:29:55;94146.03;;;27.33;37.65
20009;BME280;10165;42.662;23.260;2022-08-11T12:32:28;94146.72;;;27.24;37.11
20009;BME280;10165;42.662;23.260;2022-08-11T12:34:56;94147.66;;;26.78;38.23
20009;BME280;10165;42.662;23.260;2022-08-11T12:37:27;94148.13;;;27.29;37.84
20009;BME280;10165;42.662;23.260;2022-08-11T12:39:59;94140.06;;;27.34;37.18
20009;BME280;10165;42.662;23.260;2022-08-11T12:43:06;94134.47;;;27.87;36.30
20009;BME280;10165;42.662;23.260;2022-08-11T12:46:24;94138.69;;;28.55;35.27
20009;BME280;10165;42.662;23.260;2022-08-11T12:48:58;94138.91;;;27.93;38.08
20009;BME280;10165;42.662;23.260;2022-08-11T12:51:49;94145.97;;;27.24;39.59
20009;BME280;10165;42.662;23.260;2022-08-11T12:54:57;94147.53;;;26.81;40.76
20009;BME280;10165;42.662;23.260;2022-08-11T12:57:32;94156.19;;;26.80;40.25
20009;BME280;10165;42.662;23.260;2022-08-11T13:00:18;94152.50;;;26.74;40.67
20009;BME280;10165;42.662;23.260;2022-08-11T13:03:06;94167.13;;;25.89;42.40
20009;BME280;10165;42.662;23.260;2022-08-11T13:05:55;94159.16;;;25.57;43.87
20009;BME280;10165;42.662;23.260;2022-08-11T13:08:23;94150.84;;;26.07;43.30
20009;BME280;10165;42.662;23.260;2022-08-11T13:10:53;94156.00;;;26.74;41.75
20009;BME280;10165;42.662;23.260;2022-08-11T13:13:40;94164.59;;;26.42;42.20
20009;BME280;10165;42.662;23.260;2022-08-11T13:16:31;94167.28;;;26.07;42.56
20009;BME280;10165;42.662;23.260;2022-08-11T13:19:19;94168.19;;;26.51;42.10
20009;BME280;10165;42.662;23.260;2022-08-11T13:21:50;94166.91;;;26.65;41.65
20009;BME280;10165;42.662;23.260;2022-08-11T13:24:19;94157.69;;;26.37;42.18
20009;BME280;10165;42.662;23.260;2022-08-11T13:26:48;94157.59;;;26.62;41.72
20009;BME280;10165;42.662;23.260;2022-08-11T13:29:26;94163.34;;;26.21;42.05
20009;BME280;10165;42.662;23.260;2022-08-11T13:31:55;94152.03;;;27.19;40.03
20009;BME280;10165;42.662;23.260;2022-08-11T13:34:25;94154.97;;;27.55;38.93
20009;BME280;10165;42.662;23.260;2022-08-11T13:36:55;94147.25;;;27.10;39.86
20009;BME280;10165;42.662;23.260;2022-08-11T13:39:26;94148.09;;;26.54;40.53
20009;BME280;10165;42.662;23.260;2022-08-11T13:41:55;94138.09;;;27.66;38.51
20009;BME280;10165;42.662;23.260;2022-08-11T13:44:25;94141.94;;;26.85;39.79
20009;BME280;10165;42.662;23.260;2022-08-11T13:46:57;94147.28;;;26.67;39.73
20009;BME280;10165;42.662;23.260;2022-08-11T13:49:29;94123.56;;;27.56;38.37
20009;BME280;10165;42.662;23.260;2022-08-11T13:51:57;94134.84;;;26.75;39.03
20009;BME280;10165;42.662;23.260;2022-08-11T13:54:27;94133.03;;;27.02;39.63
20009;BME280;10165;42.662;23.260;2022-08-11T13:56:59;94117.66;;;27.76;38.69
20009;BME280;10165;42.662;23.260;2022-08-11T13:59:26;94119.16;;;28.35;38.24
20009;BME280;10165;42.662;23.260;2022-08-11T14:02:00;94123.56;;;28.23;37.61
20009;BME280;10165;42.662;23.260;2022-08-11T14:04:56;94119.75;;;26.70;39.97
20009;BME280;10165;42.662;23.260;2022-08-11T14:07:33;94119.59;;;26.95;40.24
20009;BME280;10165;42.662;23.260;2022-08-11T14:10:02;94110.69;;;27.44;39.45
20009;BME280;10165;42.662;23.260;2022-08-11T14:12:31;94116.72;;;27.30;39.80
20009;BME280;10165;42.662;23.260;2022-08-11T14:15:30;94123.03;;;27.08;38.81
20009;BME280;10165;42.662;23.260;2022-08-11T14:18:05;94111.31;;;27.97;37.12
20009;BME280;10165;42.662;23.260;2022-08-11T14:20:41;94112.13;;;28.25;36.42
20009;BME280;10165;42.662;23.260;2022-08-11T14:23:34;94110.28;;;28.13;35.77
20009;BME280;10165;42.662;23.260;2022-08-11T14:26:04;94104.03;;;27.54;37.09
20009;BME280;10165;42.662;23.260;2022-08-11T14:31:31;94120.25;;;27.79;37.02
20009;BME280;10165;42.662;23.260;2022-08-11T14:34:04;94114.25;;;28.30;36.16
20009;BME280;10165;42.662;23.260;2022-08-11T14:36:37;94108.28;;;28.86;35.33
20009;BME280;10165;42.662;23.260;2022-08-11T14:39:12;94105.75;;;29.15;35.59
20009;BME280;10165;42.662;23.260;2022-08-11T14:41:47;94103.53;;;28.95;34.89
20009;BME280;10165;42.662;23.260;2022-08-11T14:44:45;94107.72;;;28.36;34.62
20009;BME280;10165;42.662;23.260;2022-08-11T14:47:33;94106.31;;;28.77;34.72
20009;BME280;10165;42.662;23.260;2022-08-11T14:50:02;94099.59;;;28.78;34.05
20009;BME280;10165;42.662;23.260;2022-08-11T14:52:42;94098.84;;;28.41;35.15
20009;BME280;10165;42.662;23.260;2022-08-11T14:55:18;94096.84;;;28.69;34.04
20009;BME280;10165;42.662;23.260;2022-08-11T14:58:07;94101.44;;;28.18;35.12
20009;BME280;10165;42.662;23.260;2022-08-11T15:00:36;94105.59;;;27.64;36.49
20009;BME280;10165;42.662;23.260;2022-08-11T15:03:04;94098.06;;;28.41;35.78
20009;BME280;10165;42.662;23.260;2022-08-11T15:05:48;94093.50;;;28.38;35.87
20009;BME280;10165;42.662;23.260;2022-08-11T15:08:28;94098.22;;;28.56;35.73
20009;BME280;10165;42.662;23.260;2022-08-11T15:11:16;94094.38;;;28.89;35.19
20009;BME280;10165;42.662;23.260;2022-08-11T15:14:04;94093.66;;;28.34;36.49
20009;BME280;10165;42.662;23.260;2022-08-11T15:16:32;94085.28;;;27.13;38.05
20009;BME280;10165;42.662;23.260;2022-08-11T15:19:19;94098.59;;;27.63;37.69
20009;BME280;10165;42.662;23.260;2022-08-11T15:21:48;94088.44;;;28.45;36.75
20009;BME280;10165;42.662;23.260;2022-08-11T15:24:34;94090.75;;;27.52;38.22
20009;BME280;10165;42.662;23.260;2022-08-11T15:27:10;94089.69;;;27.50;37.93
20009;BME280;10165;42.662;23.260;2022-08-11T15:29:57;94078.41;;;28.24;36.97
20009;BME280;10165;42.662;23.260;2022-08-11T15:33:02;94082.91;;;27.91;37.78
20009;BME280;10165;42.662;23.260;2022-08-11T15:35:50;94078.22;;;28.46;37.41
20009;BME280;10165;42.662;23.260;2022-08-11T15:38:41;94084.44;;;27.34;39.03
20009;BME280;10165;42.662;23.260;2022-08-11T15:41:13;94083.94;;;27.17;39.53
20009;BME280;10165;42.662;23.260;2022-08-11T15:44:05;94084.25;;;26.88;40.12
20009;BME280;10165;42.662;23.260;2022-08-11T15:47:11;94085.53;;;26.53;40.71
20009;BME280;10165;42.662;23.260;2022-08-11T15:49:40;94093.44;;;26.29;40.75
20009;BME280;10165;42.662;23.260;2022-08-11T15:52:33;94086.59;;;26.77;40.07
20009;BME280;10165;42.662;23.260;2022-08-11T15:55:05;94085.03;;;26.67;39.91
20009;BME280;10165;42.662;23.260;2022-08-11T15:57:36;94087.56;;;26.61;39.57
20009;BME280;10165;42.662;23.260;2022-08-11T16:00:23;94085.22;;;27.03;38.85
20009;BME280;10165;42.662;23.260;2022-08-11T16:03:09;94095.25;;;26.97;39.08
20009;BME280;10165;42.662;23.260;2022-08-11T16:06:16;94106.22;;;26.54;39.64
20009;BME280;10165;42.662;23.260;2022-08-11T16:08:43;94100.28;;;26.77;39.28
20009;BME280;10165;42.662;23.260;2022-08-11T16:11:12;94100.88;;;26.72;38.77
20009;BME280;10165;42.662;23.260;2022-08-11T16:13:39;94107.94;;;26.60;38.75
20009;BME280;10165;42.662;23.260;2022-08-11T16:16:07;94100.75;;;26.97;37.94
20009;BME280;10165;42.662;23.260;2022-08-11T16:18:45;94093.56;;;26.47;38.66
20009;BME280;10165;42.662;23.260;2022-08-11T16:21:20;94097.19;;;26.66;38.48
20009;BME280;10165;42.662;23.260;2022-08-11T16:24:03;94101.03;;;26.90;37.91
20009;BME280;10165;42.662;23.260;2022-08-11T16:26:32;94102.41;;;26.73;37.94
20009;BME280;10165;42.662;23.260;2022-08-11T16:29:22;94104.53;;;26.13;38.24
20009;BME280;10165;42.662;23.260;2022-08-11T16:31:52;94112.69;;;25.91;38.98
20009;BME280;10165;42.662;23.260;2022-08-11T16:34:41;94103.75;;;26.90;37.39
20009;BME280;10165;42.662;23.260;2022-08-11T16:37:32;94104.16;;;27.10;36.93
20009;BME280;10165;42.662;23.260;2022-08-11T16:40:18;94110.81;;;27.00;37.10
20009;BME280;10165;42.662;23.260;2022-08-11T16:42:49;94114.06;;;26.43;37.82
20009;BME280;10165;42.662;23.260;2022-08-11T16:45:38;94113.75;;;26.41;38.16
20009;BME280;10165;42.662;23.260;2022-08-11T16:48:27;94121.28;;;26.71;37.83
20009;BME280;10165;42.662;23.260;2022-08-11T16:51:05;94120.72;;;26.98;37.42
20009;BME280;10165;42.662;23.260;2022-08-11T16:53:32;94125.16;;;26.83;37.54
20009;BME280;10165;42.662;23.260;2022-08-11T16:56:26;94126.44;;;26.69;37.80
20009;BME280;10165;42.662;23.260;2022-08-11T16:58:55;94127.13;;;26.39;37.80
20009;BME280;10165;42.662;23.260;2022-08-11T17:02:02;94125.44;;;26.20;38.40
20009;BME280;10165;42.662;23.260;2022-08-11T17:04:38;94130.78;;;26.79;37.42
20009;BME280;10165;42.662;23.260;2022-08-11T17:07:27;94130.88;;;26.76;37.63
20009;BME280;10165;42.662;23.260;2022-08-11T17:13:30;94132.94;;;26.84;37.45
20009;BME280;10165;42.662;23.260;2022-08-11T17:16:01;94134.97;;;26.71;37.78
20009;BME280;10165;42.662;23.260;2022-08-11T17:18:44;94136.69;;;26.78;37.56
20009;BME280;10165;42.662;23.260;2022-08-11T17:21:30;94145.28;;;26.45;38.24